sensor_id;sensor_type;location;lat;lon;timestamp;P1;durP1;ratioP1;P2;durP2;ratioP2
17826;SDS011;9038;48.208;16.308;2022-11-20T00:01:06;25.40;;;16.50;;
17826;SDS011;9038;48.208;16.308;2022-11-20T00:03:09;27.73;;;17.37;;
17826;SDS011;9038;48.208;16.308;2022-11-20T00:05:11;28.47;;;17.50;;
17826;SDS011;9038;48.208;16.308;2022-11-20T00:07:13;25.87;;;15.67;;
17826;SDS011;9038;48.208;16.308;2022-11-20T00:09:16;27.07;;;16.90;;
17826;SDS011;9038;48.208;16.308;2022-11-20T00:11:19;24.43;;;15.83;;
17826;SDS011;9038;48.208;16.308;2022-11-20T00:13:22;26.97;;;16.83;;
17826;SDS011;9038;48.208;16.308;2022-11-20T00:15:24;28.70;;;16.80;;
17826;SDS011;9038;48.208;16.308;2022-11-20T00:17:26;62.30;;;19.67;;
17826;SDS011;9038;48.208;16.308;2022-11-20T00:19:28;25.63;;;16.40;;
17826;SDS011;9038;48.208;16.308;2022-11-20T00:21:30;25.27;;;16.77;;
17826;SDS011;9038;48.208;16.308;2022-11-20T00:23:32;26.20;;;15.97;;
17826;SDS011;9038;48.208;16.308;2022-11-20T00:25:36;27.03;;;16.43;;
17826;SDS011;9038;48.208;16.308;2022-11-20T00:27:38;23.77;;;15.70;;
17826;SDS011;9038;48.208;16.308;2022-11-20T00:29:40;23.03;;;15.13;;
17826;SDS011;9038;48.208;16.308;2022-11-20T00:31:42;23.80;;;15.33;;
17826;SDS011;9038;48.208;16.308;2022-11-20T00:33:44;25.90;;;15.97;;
17826;SDS011;9038;48.208;16.308;2022-11-20T00:35:46;23.20;;;14.63;;
17826;SDS011;9038;48.208;16.308;2022-11-20T00:37:48;23.83;;;15.07;;
17826;SDS011;9038;48.208;16.308;2022-11-20T00:39:50;21.67;;;15.00;;
17826;SDS011;9038;48.208;16.308;2022-11-20T00:41:53;27.10;;;16.63;;
17826;SDS011;9038;48.208;16.308;2022-11-20T00:43:55;23.73;;;15.57;;
17826;SDS011;9038;48.208;16.308;2022-11-20T00:45:57;23.67;;;15.30;;
17826;SDS011;9038;48.208;16.308;2022-11-20T00:47:59;25.73;;;15.47;;
17826;SDS011;9038;48.208;16.308;2022-11-20T00:50:01;24.13;;;14.90;;
17826;SDS011;9038;48.208;16.308;2022-11-20T00:52:03;26.67;;;15.73;;
17826;SDS011;9038;48.208;16.308;2022-11-20T00:54:05;23.17;;;14.73;;
17826;SDS011;9038;48.208;16.308;2022-11-20T00:56:09;22.93;;;15.03;;
17826;SDS011;9038;48.208;16.308;2022-11-20T00:58:14;24.57;;;15.93;;
17826;SDS011;9038;48.208;16.308;2022-11-20T01:00:15;23.93;;;15.50;;
17826;SDS011;9038;48.208;16.308;2022-11-20T01:02:18;24.57;;;15.33;;
17826;SDS011;9038;48.208;16.308;2022-11-20T01:04:20;24.43;;;15.47;;
17826;SDS011;9038;48.208;16.308;2022-11-20T01:06:22;25.53;;;16.17;;
17826;SDS011;9038;48.208;16.308;2022-11-20T01:08:28;24.63;;;16.27;;
17826;SDS011;9038;48.208;16.308;2022-11-20T01:10:31;28.77;;;16.63;;
17826;SDS011;9038;48.208;16.308;2022-11-20T01:12:33;23.07;;;15.20;;
17826;SDS011;9038;48.208;16.308;2022-11-20T01:14:36;24.27;;;15.77;;
17826;SDS011;9038;48.208;16.308;2022-11-20T01:16:39;24.07;;;15.37;;
17826;SDS011;9038;48.208;16.308;2022-11-20T01:18:42;23.90;;;15.17;;
17826;SDS011;9038;48.208;16.308;2022-11-20T01:20:45;23.87;;;15.43;;
17826;SDS011;9038;48.208;16.308;2022-11-20T01:22:47;24.30;;;15.53;;
17826;SDS011;9038;48.208;16.308;2022-11-20T01:24:49;26.23;;;15.80;;
17826;SDS011;9038;48.208;16.308;2022-11-20T01:26:51;24.53;;;15.60;;
17826;SDS011;9038;48.208;16.308;2022-11-20T01:28:53;28.50;;;16.30;;
17826;SDS011;9038;48.208;16.308;2022-11-20T01:30:57;26.73;;;16.50;;
17826;SDS011;9038;48.208;16.308;2022-11-20T01:32:59;24.57;;;16.23;;
17826;SDS011;9038;48.208;16.308;2022-11-20T01:35:01;23.80;;;15.47;;
17826;SDS011;9038;48.208;16.308;2022-11-20T01:37:03;23.33;;;15.17;;
17826;SDS011;9038;48.208;16.308;2022-11-20T01:39:06;23.93;;;15.67;;
17826;SDS011;9038;48.208;16.308;2022-11-20T01:41:11;26.70;;;16.27;;
17826;SDS011;9038;48.208;16.308;2022-11-20T01:43:35;24.33;;;15.87;;
17826;SDS011;9038;48.208;16.308;2022-11-20T01:48:05;24.77;;;15.90;;
17826;SDS011;9038;48.208;16.308;2022-11-20T01:50:09;24.60;;;15.77;;
17826;SDS011;9038;48.208;16.308;2022-11-20T01:52:16;26.40;;;15.87;;
17826;SDS011;9038;48.208;16.308;2022-11-20T01:54:21;24.23;;;14.77;;
17826;SDS011;9038;48.208;16.308;2022-11-20T01:56:26;24.53;;;15.37;;
17826;SDS011;9038;48.208;16.308;2022-11-20T01:58:32;34.67;;;20.73;;
17826;SDS011;9038;48.208;16.308;2022-11-20T02:00:36;26.33;;;16.20;;
17826;SDS011;9038;48.208;16.308;2022-11-20T02:02:40;25.13;;;15.93;;
17826;SDS011;9038;48.208;16.308;2022-11-20T02:04:47;23.87;;;15.40;;
17826;SDS011;9038;48.208;16.308;2022-11-20T02:06:53;28.43;;;16.33;;
17826;SDS011;9038;48.208;16.308;2022-11-20T02:09:00;24.27;;;15.67;;
17826;SDS011;9038;48.208;16.308;2022-11-20T02:11:02;24.10;;;15.43;;
17826;SDS011;9038;48.208;16.308;2022-11-20T02:13:03;26.83;;;16.17;;
17826;SDS011;9038;48.208;16.308;2022-11-20T02:15:20;26.77;;;16.87;;
17826;SDS011;9038;48.208;16.308;2022-11-20T02:17:22;24.37;;;16.40;;
17826;SDS011;9038;48.208;16.308;2022-11-20T02:19:27;23.80;;;16.13;;
17826;SDS011;9038;48.208;16.308;2022-11-20T02:21:33;23.90;;;15.70;;
17826;SDS011;9038;48.208;16.308;2022-11-20T02:23:38;25.83;;;15.73;;
17826;SDS011;9038;48.208;16.308;2022-11-20T02:25:46;25.30;;;15.87;;
17826;SDS011;9038;48.208;16.308;2022-11-20T02:27:48;27.93;;;17.23;;
17826;SDS011;9038;48.208;16.308;2022-11-20T02:29:52;28.93;;;18.20;;
17826;SDS011;9038;48.208;16.308;2022-11-20T02:31:56;27.20;;;17.87;;
17826;SDS011;9038;48.208;16.308;2022-11-20T02:34:01;27.97;;;17.23;;
17826;SDS011;9038;48.208;16.308;2022-11-20T02:36:04;30.10;;;18.07;;
17826;SDS011;9038;48.208;16.308;2022-11-20T02:38:06;27.20;;;17.27;;
17826;SDS011;9038;48.208;16.308;2022-11-20T02:40:09;29.83;;;18.33;;
17826;SDS011;9038;48.208;16.308;2022-11-20T02:42:12;29.50;;;17.30;;
17826;SDS011;9038;48.208;16.308;2022-11-20T02:44:14;29.97;;;17.50;;
17826;SDS011;9038;48.208;16.308;2022-11-20T02:46:16;26.27;;;17.33;;
17826;SDS011;9038;48.208;16.308;2022-11-20T02:48:18;30.57;;;17.87;;
17826;SDS011;9038;48.208;16.308;2022-11-20T02:50:20;30.27;;;18.33;;
17826;SDS011;9038;48.208;16.308;2022-11-20T02:54:37;30.03;;;17.70;;
17826;SDS011;9038;48.208;16.308;2022-11-20T02:56:39;28.47;;;17.63;;
17826;SDS011;9038;48.208;16.308;2022-11-20T02:58:44;28.37;;;17.97;;
17826;SDS011;9038;48.208;16.308;2022-11-20T03:00:46;27.23;;;17.37;;
17826;SDS011;9038;48.208;16.308;2022-11-20T03:02:48;28.77;;;17.87;;
17826;SDS011;9038;48.208;16.308;2022-11-20T03:04:50;27.70;;;16.67;;
17826;SDS011;9038;48.208;16.308;2022-11-20T03:06:52;29.87;;;17.40;;
17826;SDS011;9038;48.208;16.308;2022-11-20T03:08:54;30.70;;;17.90;;
17826;SDS011;9038;48.208;16.308;2022-11-20T03:10:56;28.37;;;17.17;;
17826;SDS011;9038;48.208;16.308;2022-11-20T03:13:03;28.37;;;17.70;;
17826;SDS011;9038;48.208;16.308;2022-11-20T03:15:07;28.07;;;17.73;;
17826;SDS011;9038;48.208;16.308;2022-11-20T03:17:10;29.13;;;17.60;;
17826;SDS011;9038;48.208;16.308;2022-11-20T03:19:12;33.93;;;16.90;;
17826;SDS011;9038;48.208;16.308;2022-11-20T03:21:14;29.33;;;17.23;;
17826;SDS011;9038;48.208;16.308;2022-11-20T03:23:17;26.93;;;17.10;;
17826;SDS011;9038;48.208;16.308;2022-11-20T03:25:19;26.23;;;17.00;;
17826;SDS011;9038;48.208;16.308;2022-11-20T03:27:20;27.60;;;17.43;;
17826;SDS011;9038;48.208;16.308;2022-11-20T03:29:22;31.13;;;17.47;;
17826;SDS011;9038;48.208;16.308;2022-11-20T03:31:27;30.97;;;17.67;;
17826;SDS011;9038;48.208;16.308;2022-11-20T03:33:30;32.30;;;18.10;;
17826;SDS011;9038;48.208;16.308;2022-11-20T03:35:31;28.47;;;17.53;;
17826;SDS011;9038;48.208;16.308;2022-11-20T03:37:33;30.00;;;18.10;;
17826;SDS011;9038;48.208;16.308;2022-11-20T03:39:35;27.77;;;17.47;;
17826;SDS011;9038;48.208;16.308;2022-11-20T03:41:38;28.00;;;17.37;;
17826;SDS011;9038;48.208;16.308;2022-11-20T03:43:40;28.77;;;17.17;;
17826;SDS011;9038;48.208;16.308;2022-11-20T03:45:42;29.10;;;17.73;;
17826;SDS011;9038;48.208;16.308;2022-11-20T03:47:46;30.10;;;18.23;;
17826;SDS011;9038;48.208;16.308;2022-11-20T03:49:48;27.97;;;18.03;;
17826;SDS011;9038;48.208;16.308;2022-11-20T03:51:50;28.23;;;17.83;;
17826;SDS011;9038;48.208;16.308;2022-11-20T03:53:53;28.00;;;17.37;;
17826;SDS011;9038;48.208;16.308;2022-11-20T03:55:56;28.53;;;18.03;;
17826;SDS011;9038;48.208;16.308;2022-11-20T03:57:58;31.40;;;17.80;;
17826;SDS011;9038;48.208;16.308;2022-11-20T03:59:59;27.50;;;17.33;;
17826;SDS011;9038;48.208;16.308;2022-11-20T04:02:01;29.17;;;18.27;;
17826;SDS011;9038;48.208;16.308;2022-11-20T04:04:05;31.37;;;17.43;;
17826;SDS011;9038;48.208;16.308;2022-11-20T04:06:07;31.50;;;17.70;;
17826;SDS011;9038;48.208;16.308;2022-11-20T04:08:11;27.77;;;17.77;;
17826;SDS011;9038;48.208;16.308;2022-11-20T04:10:13;30.00;;;18.53;;
17826;SDS011;9038;48.208;16.308;2022-11-20T04:12:15;26.80;;;17.17;;
17826;SDS011;9038;48.208;16.308;2022-11-20T04:14:17;25.93;;;17.20;;
17826;SDS011;9038;48.208;16.308;2022-11-20T04:16:19;30.03;;;17.33;;
17826;SDS011;9038;48.208;16.308;2022-11-20T04:18:22;31.87;;;18.33;;
17826;SDS011;9038;48.208;16.308;2022-11-20T04:20:25;27.53;;;18.80;;
17826;SDS011;9038;48.208;16.308;2022-11-20T04:22:27;28.80;;;17.63;;
17826;SDS011;9038;48.208;16.308;2022-11-20T04:24:29;30.83;;;18.90;;
17826;SDS011;9038;48.208;16.308;2022-11-20T04:26:31;28.53;;;17.17;;
17826;SDS011;9038;48.208;16.308;2022-11-20T04:28:33;27.27;;;17.60;;
17826;SDS011;9038;48.208;16.308;2022-11-20T04:30:35;27.10;;;16.93;;
17826;SDS011;9038;48.208;16.308;2022-11-20T04:32:37;29.40;;;16.80;;
17826;SDS011;9038;48.208;16.308;2022-11-20T04:34:39;29.53;;;17.37;;
17826;SDS011;9038;48.208;16.308;2022-11-20T04:36:42;32.47;;;18.47;;
17826;SDS011;9038;48.208;16.308;2022-11-20T04:38:44;29.77;;;17.53;;
17826;SDS011;9038;48.208;16.308;2022-11-20T04:40:48;30.57;;;18.03;;
17826;SDS011;9038;48.208;16.308;2022-11-20T04:42:50;31.67;;;18.87;;
17826;SDS011;9038;48.208;16.308;2022-11-20T04:44:52;28.90;;;17.50;;
17826;SDS011;9038;48.208;16.308;2022-11-20T04:46:53;30.27;;;18.07;;
17826;SDS011;9038;48.208;16.308;2022-11-20T04:48:55;30.60;;;18.67;;
17826;SDS011;9038;48.208;16.308;2022-11-20T04:50:58;30.37;;;17.90;;
17826;SDS011;9038;48.208;16.308;2022-11-20T04:53:05;29.00;;;18.13;;
17826;SDS011;9038;48.208;16.308;2022-11-20T04:55:07;28.57;;;18.73;;
17826;SDS011;9038;48.208;16.308;2022-11-20T04:57:09;32.77;;;19.03;;
17826;SDS011;9038;48.208;16.308;2022-11-20T04:59:13;29.30;;;18.20;;
17826;SDS011;9038;48.208;16.308;2022-11-20T05:01:16;31.77;;;19.40;;
17826;SDS011;9038;48.208;16.308;2022-11-20T05:03:18;29.47;;;18.53;;
17826;SDS011;9038;48.208;16.308;2022-11-20T05:05:20;31.80;;;19.40;;
17826;SDS011;9038;48.208;16.308;2022-11-20T05:07:22;32.30;;;19.40;;
17826;SDS011;9038;48.208;16.308;2022-11-20T05:09:26;30.30;;;18.23;;
17826;SDS011;9038;48.208;16.308;2022-11-20T05:11:27;28.83;;;18.63;;
17826;SDS011;9038;48.208;16.308;2022-11-20T05:13:30;29.93;;;18.53;;
17826;SDS011;9038;48.208;16.308;2022-11-20T05:15:32;29.80;;;18.67;;
17826;SDS011;9038;48.208;16.308;2022-11-20T05:17:33;29.20;;;18.37;;
17826;SDS011;9038;48.208;16.308;2022-11-20T05:19:35;29.70;;;19.00;;
17826;SDS011;9038;48.208;16.308;2022-11-20T05:21:37;26.60;;;17.23;;
17826;SDS011;9038;48.208;16.308;2022-11-20T05:23:40;27.17;;;17.40;;
17826;SDS011;9038;48.208;16.308;2022-11-20T05:25:43;28.47;;;17.73;;
17826;SDS011;9038;48.208;16.308;2022-11-20T05:27:45;27.67;;;16.87;;
17826;SDS011;9038;48.208;16.308;2022-11-20T05:29:47;25.60;;;17.33;;
17826;SDS011;9038;48.208;16.308;2022-11-20T05:31:49;32.63;;;18.20;;
17826;SDS011;9038;48.208;16.308;2022-11-20T05:33:51;29.20;;;18.03;;
17826;SDS011;9038;48.208;16.308;2022-11-20T05:35:53;30.07;;;17.13;;
17826;SDS011;9038;48.208;16.308;2022-11-20T05:37:59;30.10;;;19.00;;
17826;SDS011;9038;48.208;16.308;2022-11-20T05:40:01;27.50;;;18.07;;
17826;SDS011;9038;48.208;16.308;2022-11-20T05:42:04;26.23;;;18.10;;
17826;SDS011;9038;48.208;16.308;2022-11-20T05:44:23;27.07;;;17.40;;
17826;SDS011;9038;48.208;16.308;2022-11-20T05:46:25;28.00;;;17.73;;
17826;SDS011;9038;48.208;16.308;2022-11-20T05:48:27;30.60;;;18.33;;
17826;SDS011;9038;48.208;16.308;2022-11-20T05:50:29;31.03;;;19.10;;
17826;SDS011;9038;48.208;16.308;2022-11-20T05:52:31;28.60;;;17.93;;
17826;SDS011;9038;48.208;16.308;2022-11-20T05:54:33;27.77;;;18.00;;
17826;SDS011;9038;48.208;16.308;2022-11-20T05:56:35;28.20;;;17.27;;
17826;SDS011;9038;48.208;16.308;2022-11-20T05:58:38;27.03;;;17.10;;
17826;SDS011;9038;48.208;16.308;2022-11-20T06:00:41;28.80;;;18.10;;
17826;SDS011;9038;48.208;16.308;2022-11-20T06:02:43;26.30;;;17.10;;
17826;SDS011;9038;48.208;16.308;2022-11-20T06:04:45;26.57;;;17.30;;
17826;SDS011;9038;48.208;16.308;2022-11-20T06:06:47;27.67;;;17.73;;
17826;SDS011;9038;48.208;16.308;2022-11-20T06:08:49;29.63;;;18.70;;
17826;SDS011;9038;48.208;16.308;2022-11-20T06:10:51;28.67;;;17.97;;
17826;SDS011;9038;48.208;16.308;2022-11-20T06:12:52;26.57;;;17.50;;
17826;SDS011;9038;48.208;16.308;2022-11-20T06:14:56;27.87;;;17.97;;
17826;SDS011;9038;48.208;16.308;2022-11-20T06:16:58;26.93;;;17.27;;
17826;SDS011;9038;48.208;16.308;2022-11-20T06:19:00;27.23;;;17.30;;
17826;SDS011;9038;48.208;16.308;2022-11-20T06:21:02;29.17;;;18.90;;
17826;SDS011;9038;48.208;16.308;2022-11-20T06:23:05;26.20;;;17.20;;
17826;SDS011;9038;48.208;16.308;2022-11-20T06:25:07;27.80;;;17.10;;
17826;SDS011;9038;48.208;16.308;2022-11-20T06:27:09;27.23;;;17.47;;
17826;SDS011;9038;48.208;16.308;2022-11-20T06:29:11;27.73;;;18.60;;
17826;SDS011;9038;48.208;16.308;2022-11-20T06:31:16;29.87;;;18.70;;
17826;SDS011;9038;48.208;16.308;2022-11-20T06:33:18;28.60;;;17.53;;
17826;SDS011;9038;48.208;16.308;2022-11-20T06:35:20;30.27;;;18.33;;
17826;SDS011;9038;48.208;16.308;2022-11-20T06:37:22;30.53;;;18.83;;
17826;SDS011;9038;48.208;16.308;2022-11-20T06:39:24;29.10;;;18.13;;
17826;SDS011;9038;48.208;16.308;2022-11-20T06:41:26;27.60;;;18.10;;
17826;SDS011;9038;48.208;16.308;2022-11-20T06:43:29;28.60;;;18.43;;
17826;SDS011;9038;48.208;16.308;2022-11-20T06:45:31;29.47;;;18.20;;
17826;SDS011;9038;48.208;16.308;2022-11-20T06:47:34;29.30;;;17.77;;
17826;SDS011;9038;48.208;16.308;2022-11-20T06:49:36;27.40;;;17.50;;
17826;SDS011;9038;48.208;16.308;2022-11-20T06:51:38;31.33;;;18.63;;
17826;SDS011;9038;48.208;16.308;2022-11-20T06:53:40;29.30;;;18.90;;
17826;SDS011;9038;48.208;16.308;2022-11-20T06:55:42;30.87;;;18.43;;
17826;SDS011;9038;48.208;16.308;2022-11-20T06:57:44;30.97;;;18.03;;
17826;SDS011;9038;48.208;16.308;2022-11-20T06:59:46;30.13;;;18.33;;
17826;SDS011;9038;48.208;16.308;2022-11-20T07:01:48;30.73;;;18.03;;
17826;SDS011;9038;48.208;16.308;2022-11-20T07:03:51;28.73;;;18.37;;
17826;SDS011;9038;48.208;16.308;2022-11-20T07:05:54;29.63;;;18.23;;
17826;SDS011;9038;48.208;16.308;2022-11-20T07:07:56;30.00;;;18.67;;
17826;SDS011;9038;48.208;16.308;2022-11-20T07:09:59;31.10;;;19.23;;
17826;SDS011;9038;48.208;16.308;2022-11-20T07:12:00;29.80;;;18.00;;
17826;SDS011;9038;48.208;16.308;2022-11-20T07:14:02;29.93;;;18.77;;
17826;SDS011;9038;48.208;16.308;2022-11-20T07:16:05;30.07;;;18.37;;
17826;SDS011;9038;48.208;16.308;2022-11-20T07:18:08;30.13;;;19.00;;
17826;SDS011;9038;48.208;16.308;2022-11-20T07:20:12;34.27;;;19.07;;
17826;SDS011;9038;48.208;16.308;2022-11-20T07:22:14;28.53;;;18.17;;
17826;SDS011;9038;48.208;16.308;2022-11-20T07:24:16;29.33;;;19.07;;
17826;SDS011;9038;48.208;16.308;2022-11-20T07:26:18;29.73;;;18.83;;
17826;SDS011;9038;48.208;16.308;2022-11-20T07:28:20;30.23;;;18.53;;
17826;SDS011;9038;48.208;16.308;2022-11-20T07:30:22;30.63;;;19.20;;
17826;SDS011;9038;48.208;16.308;2022-11-20T07:32:25;31.27;;;19.43;;
17826;SDS011;9038;48.208;16.308;2022-11-20T07:34:27;30.17;;;19.53;;
17826;SDS011;9038;48.208;16.308;2022-11-20T07:36:30;32.00;;;19.80;;
17826;SDS011;9038;48.208;16.308;2022-11-20T07:38:32;32.43;;;19.43;;
17826;SDS011;9038;48.208;16.308;2022-11-20T07:40:34;31.17;;;19.63;;
17826;SDS011;9038;48.208;16.308;2022-11-20T07:42:36;31.37;;;19.37;;
17826;SDS011;9038;48.208;16.308;2022-11-20T07:44:37;33.33;;;19.77;;
17826;SDS011;9038;48.208;16.308;2022-11-20T07:46:39;32.00;;;19.60;;
17826;SDS011;9038;48.208;16.308;2022-11-20T07:48:41;32.67;;;19.33;;
17826;SDS011;9038;48.208;16.308;2022-11-20T07:50:43;34.10;;;19.43;;
17826;SDS011;9038;48.208;16.308;2022-11-20T07:52:47;31.80;;;19.23;;
17826;SDS011;9038;48.208;16.308;2022-11-20T07:54:49;31.80;;;19.07;;
17826;SDS011;9038;48.208;16.308;2022-11-20T07:56:51;34.73;;;19.73;;
17826;SDS011;9038;48.208;16.308;2022-11-20T07:58:53;33.93;;;19.57;;
17826;SDS011;9038;48.208;16.308;2022-11-20T08:00:55;32.37;;;18.90;;
17826;SDS011;9038;48.208;16.308;2022-11-20T08:02:56;31.60;;;19.33;;
17826;SDS011;9038;48.208;16.308;2022-11-20T08:04:58;31.03;;;19.23;;
17826;SDS011;9038;48.208;16.308;2022-11-20T08:07:00;29.50;;;19.60;;
17826;SDS011;9038;48.208;16.308;2022-11-20T08:09:04;31.70;;;19.40;;
17826;SDS011;9038;48.208;16.308;2022-11-20T08:11:06;33.03;;;20.57;;
17826;SDS011;9038;48.208;16.308;2022-11-20T08:13:25;29.90;;;18.87;;
17826;SDS011;9038;48.208;16.308;2022-11-20T08:15:47;34.90;;;19.63;;
17826;SDS011;9038;48.208;16.308;2022-11-20T08:17:50;34.27;;;20.60;;
17826;SDS011;9038;48.208;16.308;2022-11-20T08:19:52;31.97;;;19.03;;
17826;SDS011;9038;48.208;16.308;2022-11-20T08:21:54;31.43;;;20.53;;
17826;SDS011;9038;48.208;16.308;2022-11-20T08:23:56;32.77;;;20.23;;
17826;SDS011;9038;48.208;16.308;2022-11-20T08:26:00;32.20;;;20.10;;
17826;SDS011;9038;48.208;16.308;2022-11-20T08:28:03;35.10;;;20.87;;
17826;SDS011;9038;48.208;16.308;2022-11-20T08:30:07;31.27;;;20.23;;
17826;SDS011;9038;48.208;16.308;2022-11-20T08:32:10;34.57;;;20.13;;
17826;SDS011;9038;48.208;16.308;2022-11-20T08:34:12;33.30;;;20.07;;
17826;SDS011;9038;48.208;16.308;2022-11-20T08:36:14;33.43;;;20.33;;
17826;SDS011;9038;48.208;16.308;2022-11-20T08:38:16;36.47;;;20.07;;
17826;SDS011;9038;48.208;16.308;2022-11-20T08:40:18;32.83;;;20.60;;
17826;SDS011;9038;48.208;16.308;2022-11-20T08:42:21;34.50;;;20.23;;
17826;SDS011;9038;48.208;16.308;2022-11-20T08:44:23;32.90;;;19.83;;
17826;SDS011;9038;48.208;16.308;2022-11-20T08:46:26;33.07;;;19.93;;
17826;SDS011;9038;48.208;16.308;2022-11-20T08:48:29;32.43;;;20.33;;
17826;SDS011;9038;48.208;16.308;2022-11-20T08:50:31;32.67;;;20.43;;
17826;SDS011;9038;48.208;16.308;2022-11-20T08:52:33;33.13;;;21.50;;
17826;SDS011;9038;48.208;16.308;2022-11-20T08:54:35;32.10;;;20.13;;
17826;SDS011;9038;48.208;16.308;2022-11-20T08:56:37;34.63;;;20.97;;
17826;SDS011;9038;48.208;16.308;2022-11-20T08:58:41;33.77;;;20.57;;
17826;SDS011;9038;48.208;16.308;2022-11-20T09:00:43;32.37;;;20.37;;
17826;SDS011;9038;48.208;16.308;2022-11-20T09:02:44;31.13;;;20.53;;
17826;SDS011;9038;48.208;16.308;2022-11-20T09:04:46;33.63;;;21.20;;
17826;SDS011;9038;48.208;16.308;2022-11-20T09:06:48;35.23;;;21.30;;
17826;SDS011;9038;48.208;16.308;2022-11-20T09:08:51;36.17;;;21.63;;
17826;SDS011;9038;48.208;16.308;2022-11-20T09:10:53;34.40;;;20.77;;
17826;SDS011;9038;48.208;16.308;2022-11-20T09:12:56;32.43;;;20.37;;
17826;SDS011;9038;48.208;16.308;2022-11-20T09:15:00;33.10;;;20.47;;
17826;SDS011;9038;48.208;16.308;2022-11-20T09:17:02;30.63;;;19.87;;
17826;SDS011;9038;48.208;16.308;2022-11-20T09:19:04;32.57;;;20.97;;
17826;SDS011;9038;48.208;16.308;2022-11-20T09:21:06;34.00;;;21.20;;
17826;SDS011;9038;48.208;16.308;2022-11-20T09:23:11;35.97;;;21.87;;
17826;SDS011;9038;48.208;16.308;2022-11-20T09:25:13;30.20;;;20.67;;
17826;SDS011;9038;48.208;16.308;2022-11-20T09:27:15;33.23;;;20.70;;
17826;SDS011;9038;48.208;16.308;2022-11-20T09:29:20;32.00;;;19.77;;
17826;SDS011;9038;48.208;16.308;2022-11-20T09:31:24;30.27;;;20.00;;
17826;SDS011;9038;48.208;16.308;2022-11-20T09:33:26;35.70;;;20.97;;
17826;SDS011;9038;48.208;16.308;2022-11-20T09:35:28;32.20;;;20.53;;
17826;SDS011;9038;48.208;16.308;2022-11-20T09:37:30;33.83;;;21.17;;
17826;SDS011;9038;48.208;16.308;2022-11-20T09:39:32;32.90;;;20.90;;
17826;SDS011;9038;48.208;16.308;2022-11-20T09:41:43;36.23;;;20.87;;
17826;SDS011;9038;48.208;16.308;2022-11-20T09:43:58;31.57;;;20.17;;
17826;SDS011;9038;48.208;16.308;2022-11-20T09:46:09;37.67;;;21.27;;
17826;SDS011;9038;48.208;16.308;2022-11-20T09:48:20;33.77;;;21.43;;
17826;SDS011;9038;48.208;16.308;2022-11-20T09:50:31;35.60;;;21.93;;
17826;SDS011;9038;48.208;16.308;2022-11-20T09:52:45;35.93;;;21.53;;
17826;SDS011;9038;48.208;16.308;2022-11-20T09:54:56;33.00;;;20.83;;
17826;SDS011;9038;48.208;16.308;2022-11-20T09:56:59;32.90;;;21.97;;
17826;SDS011;9038;48.208;16.308;2022-11-20T09:59:04;37.63;;;21.77;;
17826;SDS011;9038;48.208;16.308;2022-11-20T10:01:09;35.27;;;21.63;;
17826;SDS011;9038;48.208;16.308;2022-11-20T10:03:14;36.00;;;21.87;;
17826;SDS011;9038;48.208;16.308;2022-11-20T10:05:22;32.60;;;20.47;;
17826;SDS011;9038;48.208;16.308;2022-11-20T10:07:29;33.87;;;21.27;;
17826;SDS011;9038;48.208;16.308;2022-11-20T10:09:38;33.63;;;21.87;;
17826;SDS011;9038;48.208;16.308;2022-11-20T10:11:46;37.73;;;22.87;;
17826;SDS011;9038;48.208;16.308;2022-11-20T10:13:56;37.03;;;21.67;;
17826;SDS011;9038;48.208;16.308;2022-11-20T10:16:09;33.60;;;22.17;;
17826;SDS011;9038;48.208;16.308;2022-11-20T10:18:26;38.87;;;23.00;;
17826;SDS011;9038;48.208;16.308;2022-11-20T10:20:42;37.10;;;22.50;;
17826;SDS011;9038;48.208;16.308;2022-11-20T10:22:53;35.40;;;21.87;;
17826;SDS011;9038;48.208;16.308;2022-11-20T10:25:06;36.13;;;21.30;;
17826;SDS011;9038;48.208;16.308;2022-11-20T10:27:21;35.23;;;21.83;;
17826;SDS011;9038;48.208;16.308;2022-11-20T10:29:42;36.37;;;21.23;;
17826;SDS011;9038;48.208;16.308;2022-11-20T10:31:50;35.20;;;22.03;;
17826;SDS011;9038;48.208;16.308;2022-11-20T10:33:56;35.03;;;21.53;;
17826;SDS011;9038;48.208;16.308;2022-11-20T10:36:07;34.83;;;22.20;;
17826;SDS011;9038;48.208;16.308;2022-11-20T10:38:16;34.33;;;22.00;;
17826;SDS011;9038;48.208;16.308;2022-11-20T10:40:28;29.04;;;19.39;;
17826;SDS011;9038;48.208;16.308;2022-11-20T10:42:37;32.70;;;21.13;;
17826;SDS011;9038;48.208;16.308;2022-11-20T10:44:47;37.27;;;23.13;;
17826;SDS011;9038;48.208;16.308;2022-11-20T10:47:03;35.23;;;22.17;;
17826;SDS011;9038;48.208;16.308;2022-11-20T10:49:10;35.27;;;22.03;;
17826;SDS011;9038;48.208;16.308;2022-11-20T10:51:21;32.83;;;21.30;;
17826;SDS011;9038;48.208;16.308;2022-11-20T10:53:41;34.87;;;22.07;;
17826;SDS011;9038;48.208;16.308;2022-11-20T10:55:53;38.03;;;22.67;;
17826;SDS011;9038;48.208;16.308;2022-11-20T10:58:01;36.50;;;22.87;;
17826;SDS011;9038;48.208;16.308;2022-11-20T11:00:09;36.67;;;23.47;;
17826;SDS011;9038;48.208;16.308;2022-11-20T11:02:16;37.80;;;23.33;;
17826;SDS011;9038;48.208;16.308;2022-11-20T11:04:30;36.30;;;23.13;;
17826;SDS011;9038;48.208;16.308;2022-11-20T11:06:39;37.40;;;23.07;;
17826;SDS011;9038;48.208;16.308;2022-11-20T11:08:45;35.87;;;23.63;;
17826;SDS011;9038;48.208;16.308;2022-11-20T11:10:51;39.80;;;23.70;;
17826;SDS011;9038;48.208;16.308;2022-11-20T11:12:55;35.50;;;23.13;;
17826;SDS011;9038;48.208;16.308;2022-11-20T11:14:57;38.50;;;23.50;;
17826;SDS011;9038;48.208;16.308;2022-11-20T11:16:59;38.17;;;23.87;;
17826;SDS011;9038;48.208;16.308;2022-11-20T11:19:04;37.40;;;23.37;;
17826;SDS011;9038;48.208;16.308;2022-11-20T11:21:08;36.93;;;23.30;;
17826;SDS011;9038;48.208;16.308;2022-11-20T11:23:22;35.80;;;22.93;;
17826;SDS011;9038;48.208;16.308;2022-11-20T11:25:33;38.03;;;23.93;;
17826;SDS011;9038;48.208;16.308;2022-11-20T11:27:45;41.43;;;26.00;;
17826;SDS011;9038;48.208;16.308;2022-11-20T11:29:47;34.87;;;23.23;;
17826;SDS011;9038;48.208;16.308;2022-11-20T11:31:50;35.97;;;22.70;;
17826;SDS011;9038;48.208;16.308;2022-11-20T11:33:52;35.97;;;22.80;;
17826;SDS011;9038;48.208;16.308;2022-11-20T11:36:16;34.70;;;22.73;;
17826;SDS011;9038;48.208;16.308;2022-11-20T11:38:28;36.67;;;22.53;;
17826;SDS011;9038;48.208;16.308;2022-11-20T11:40:32;34.20;;;22.53;;
17826;SDS011;9038;48.208;16.308;2022-11-20T11:42:40;31.67;;;21.30;;
17826;SDS011;9038;48.208;16.308;2022-11-20T11:44:44;31.00;;;21.27;;
17826;SDS011;9038;48.208;16.308;2022-11-20T11:47:08;35.87;;;22.17;;
17826;SDS011;9038;48.208;16.308;2022-11-20T11:49:15;34.53;;;21.40;;
17826;SDS011;9038;48.208;16.308;2022-11-20T11:51:20;35.07;;;22.20;;
17826;SDS011;9038;48.208;16.308;2022-11-20T11:53:23;32.50;;;21.63;;
17826;SDS011;9038;48.208;16.308;2022-11-20T11:55:31;34.07;;;22.30;;
17826;SDS011;9038;48.208;16.308;2022-11-20T11:57:41;36.63;;;22.80;;
17826;SDS011;9038;48.208;16.308;2022-11-20T11:59:52;32.67;;;21.57;;
17826;SDS011;9038;48.208;16.308;2022-11-20T12:02:02;33.23;;;21.93;;
17826;SDS011;9038;48.208;16.308;2022-11-20T12:04:17;33.23;;;21.50;;
17826;SDS011;9038;48.208;16.308;2022-11-20T12:06:25;32.57;;;21.87;;
17826;SDS011;9038;48.208;16.308;2022-11-20T12:08:31;31.43;;;20.97;;
17826;SDS011;9038;48.208;16.308;2022-11-20T12:10:43;33.80;;;21.63;;